メインページ
METAR-TAF:

METAR-TAF

空港 :

パース空港

パース, オーストラリア

緯度: 31-56S, 経度: 115-57E, 海抜: 20m

現時点の気象観測

当レポートは38分前の16:00(UTC)に作成
無風
気温 17°C
湿度 77%
気圧 1012 hPa
視程10km以上
1,500メートル以下は雲なし、積乱雲なし

METAR: YPPH 271600Z 00000KT CAVOK 17/13 Q1012

時間: 00:38 (16:38 UTC)

予報

当レポートは2時間28分前の14:10(UTC)に作成
予報は27日の 15時(UTC)から 28日の 18時(UTC)まで有効
の風 8kt
視程10km以上
1,500メートル以下は雲なし、積乱雲なし
28日の 0600時(UTC)から
南西の風 15kt
視程10km以上
1,500メートル以下は雲なし、積乱雲なし
28日の 1200時(UTC)から
の風 9kt
視程10km以上
1,500メートル以下は雲なし、積乱雲なし

TAF: YPPH 271410Z 2715/2818 09008KT CAVOK FM280600 22015KT CAVOK FM281200 19009KT CAVOK

4,000以上の空港の気象観測と天気予報(METAR報とTAF報)

利用可能な観測所は地図上に黄色い丸と赤い丸で示す。

丸の上にカーソルを重ねると観測所名を参照できる。

次にクリックすると気象観測と天気予報を参照できる。

マップの切り替え:黒色「×」印の緑ボタンをクリックして拡大、「-」印の緑ボタンをクリックして縮小、緑色の三角印をクリックして隣りの地図に切り替え


METAR-TAF: